Time;durP1;ratioP1;P1;durP2;ratioP2;P2;SDS_P1;SDS_P2;PMS_P1;PMS_P2;Temp;Humidity;BMP_temperature;BMP_pressure;BME280_temperature;BME280_humidity;BME280_pressure;Samples;Min_cycle;Max_cycle;Signal;HPM_P1;HPM_P2
2022/05/15 00:02:11;;;;;;;17.87;10.10;;;15.40;1.00;;;;;;5073342;28;20578;-67
2022/05/15 00:04:38;;;;;;;20.63;10.37;;;15.40;1.00;;;;;;5073182;28;20176;-67
2022/05/15 00:07:04;;;;;;;22.47;10.87;;;15.40;1.00;;;;;;5073049;28;20181;-67
2022/05/15 00:09:30;;;;;;;19.67;10.40;;;15.30;1.00;;;;;;5072774;28;20211;-65
2022/05/15 00:11:56;;;;;;;16.77;10.50;;;15.30;1.00;;;;;;5072813;28;20204;-66
2022/05/15 00:14:21;;;;;;;21.63;11.20;;;15.20;1.00;;;;;;5073069;28;20168;-66
2022/05/15 00:16:47;;;;;;;21.33;10.27;;;15.20;1.00;;;;;;5072863;28;20180;-65
2022/05/15 00:19:13;;;;;;;22.00;10.60;;;15.20;1.00;;;;;;5073125;28;20176;-65
2022/05/15 00:21:39;;;;;;;19.67;11.03;;;15.10;1.00;;;;;;5072996;28;20251;-66
2022/05/15 00:24:06;;;;;;;18.60;10.57;;;15.10;1.00;;;;;;5072574;28;20208;-66
2022/05/15 00:26:33;;;;;;;20.23;10.97;;;15.10;1.00;;;;;;5072938;28;20252;-66
2022/05/15 00:28:59;;;;;;;20.00;10.43;;;15.00;1.00;;;;;;5072736;28;20222;-65
2022/05/15 00:31:25;;;;;;;21.83;11.13;;;14.90;1.00;;;;;;5071422;28;20184;-66
2022/05/15 00:33:51;;;;;;;21.37;10.63;;;14.90;1.00;;;;;;5073054;28;20169;-65
2022/05/15 00:36:17;;;;;;;18.63;11.23;;;14.90;1.00;;;;;;5072698;28;20540;-66
2022/05/15 00:38:43;;;;;;;22.17;11.57;;;14.90;1.00;;;;;;5072912;28;20184;-66
2022/05/15 00:41:10;;;;;;;25.73;11.73;;;14.90;1.00;;;;;;5073886;28;20233;-66
2022/05/15 00:43:45;;;;;;;17.70;11.80;;;14.90;1.00;;;;;;5076517;28;20183;-66
2022/05/15 00:46:14;;;;;;;20.23;11.90;;;14.80;1.00;;;;;;5076568;28;20172;-66
2022/05/15 00:48:39;;;;;;;23.70;11.50;;;14.80;1.00;;;;;;5076477;28;20211;-66
2022/05/15 00:51:17;;;;;;;24.73;11.93;;;14.80;1.00;;;;;;5076150;28;20165;-66
2022/05/15 00:53:44;;;;;;;23.57;11.53;;;14.70;1.00;;;;;;5076382;28;20561;-65
2022/05/15 00:56:11;;;;;;;23.20;11.47;;;14.70;1.00;;;;;;5076284;28;20175;-65
2022/05/15 00:58:47;;;;;;;19.63;11.67;;;14.70;1.00;;;;;;5075913;28;20291;-65
2022/05/15 01:01:15;;;;;;;21.63;11.67;;;14.70;1.00;;;;;;5076186;28;20161;-65
2022/05/15 01:03:42;;;;;;;20.87;11.73;;;14.70;1.00;;;;;;5076313;28;20255;-65
2022/05/15 01:06:08;;;;;;;22.27;12.30;;;14.60;1.00;;;;;;5076133;28;20635;-65
2022/05/15 01:08:34;;;;;;;28.87;12.27;;;14.60;1.00;;;;;;5076029;28;20207;-66
2022/05/15 01:11:05;;;;;;;22.03;11.33;;;14.60;1.00;;;;;;5076047;28;20188;-65
2022/05/15 01:13:34;;;;;;;22.37;11.70;;;14.60;1.00;;;;;;5075918;28;20317;-65
2022/05/15 01:16:01;;;;;;;21.73;11.30;;;14.50;1.00;;;;;;5075956;28;20172;-66
2022/05/15 01:18:32;;;;;;;27.23;12.23;;;14.50;1.00;;;;;;5075970;28;20164;-66
2022/05/15 01:20:59;;;;;;;25.20;12.07;;;14.40;1.00;;;;;;5075496;28;20279;-65
2022/05/15 01:23:26;;;;;;;27.03;12.00;;;14.50;1.00;;;;;;5075886;28;20181;-66
2022/05/15 01:25:52;;;;;;;23.57;11.10;;;14.40;1.00;;;;;;5076030;28;20168;-66
2022/05/15 01:28:20;;;;;;;21.47;11.80;;;14.50;1.00;;;;;;5075588;28;20176;-67
2022/05/15 01:30:50;;;;;;;27.53;12.07;;;14.50;1.00;;;;;;5075796;28;20181;-67
2022/05/15 01:33:16;;;;;;;19.87;11.97;;;14.50;1.00;;;;;;5075770;28;20173;-66
2022/05/15 01:35:42;;;;;;;20.60;11.63;;;14.50;1.00;;;;;;5073998;28;20188;-66
2022/05/15 01:38:08;;;;;;;23.43;11.80;;;14.50;1.00;;;;;;5075472;28;20177;-66
2022/05/15 01:40:35;;;;;;;23.23;12.20;;;14.50;1.00;;;;;;5075655;28;20560;-65
2022/05/15 01:43:02;;;;;;;24.47;11.53;;;14.40;1.00;;;;;;5075519;28;20192;-66
2022/05/15 01:45:28;;;;;;;24.13;12.47;;;14.40;1.00;;;;;;5075551;28;20176;-66
2022/05/15 01:47:54;;;;;;;22.63;12.03;;;14.40;1.00;;;;;;5075568;28;20180;-65
2022/05/15 01:50:19;;;;;;;25.63;12.70;;;14.30;1.00;;;;;;5075230;28;20303;-65
2022/05/15 01:52:45;;;;;;;23.67;12.10;;;14.30;1.00;;;;;;5074940;28;20164;-65
2022/05/15 01:55:12;;;;;;;21.87;12.30;;;14.30;1.00;;;;;;5075404;28;20572;-66
2022/05/15 01:57:37;;;;;;;25.77;12.57;;;14.20;1.00;;;;;;5075017;28;20161;-66
2022/05/15 02:00:07;;;;;;;26.30;12.63;;;14.10;1.00;;;;;;5075237;28;20631;-66
2022/05/15 02:02:32;;;;;;;25.30;12.87;;;14.10;1.00;;;;;;5075024;28;20176;-66
2022/05/15 02:04:58;;;;;;;25.77;13.73;;;14.10;1.00;;;;;;5073510;28;20644;-66
2022/05/15 02:07:24;;;;;;;27.07;14.10;;;14.10;1.00;;;;;;5075054;28;20606;-67
2022/05/15 02:09:49;;;;;;;23.07;12.90;;;14.00;1.00;;;;;;5074871;28;20204;-66
2022/05/15 02:12:15;;;;;;;26.37;12.97;;;14.00;1.00;;;;;;5074955;28;20411;-65
2022/05/15 02:14:41;;;;;;;23.50;13.07;;;14.00;1.00;;;;;;5075165;28;20184;-67
2022/05/15 02:17:07;;;;;;;24.93;14.50;;;14.00;1.00;;;;;;5074931;28;20177;-65
2022/05/15 02:19:33;;;;;;;25.87;13.70;;;13.90;1.00;;;;;;5074574;28;20636;-66
2022/05/15 02:21:58;;;;;;;22.53;12.43;;;13.80;1.00;;;;;;5074700;28;20173;-66
2022/05/15 02:24:24;;;;;;;26.63;12.87;;;13.90;1.00;;;;;;5074581;28;20176;-65
2022/05/15 02:26:50;;;;;;;29.20;14.27;;;13.80;1.00;;;;;;5074608;28;20165;-66
2022/05/15 02:29:16;;;;;;;26.17;13.00;;;13.70;1.00;;;;;;5074285;28;20208;-65
2022/05/15 02:31:42;;;;;;;24.80;13.23;;;13.70;1.00;;;;;;5074652;28;20221;-65
2022/05/15 02:34:08;;;;;;;25.30;13.03;;;13.70;1.00;;;;;;5074059;28;20233;-65
2022/05/15 02:36:33;;;;;;;31.57;13.70;;;13.60;2.00;;;;;;5074399;28;20211;-66
2022/05/15 02:38:59;;;;;;;30.73;13.10;;;13.60;3.40;;;;;;5074509;28;20184;-65
2022/05/15 02:41:25;;;;;;;24.13;12.90;;;13.60;4.50;;;;;;5074234;28;20176;-66
2022/05/15 02:43:50;;;;;;;30.93;13.57;;;13.50;4.60;;;;;;5074152;28;20651;-66
2022/05/15 02:46:16;;;;;;;26.67;13.73;;;13.50;6.30;;;;;;5074584;28;20207;-67
2022/05/15 02:51:26;;;;;;;20.63;12.87;;;13.50;7.50;;;;;;5074267;28;20211;-65
2022/05/15 02:53:52;;;;;;;26.00;14.50;;;13.40;9.60;;;;;;5074477;28;20200;-65
2022/05/15 02:56:19;;;;;;;27.03;13.50;;;13.40;11.30;;;;;;5072465;28;20177;-66
2022/05/15 02:58:45;;;;;;;29.03;13.90;;;13.30;13.70;;;;;;5073652;28;20223;-66
2022/05/15 03:01:11;;;;;;;25.27;13.73;;;13.30;15.50;;;;;;5073961;28;20522;-66
2022/05/15 03:03:37;;;;;;;25.00;13.53;;;13.30;19.10;;;;;;5073007;28;20302;-66
2022/05/15 03:06:05;;;;;;;23.37;13.50;;;13.20;21.30;;;;;;5073979;28;20687;-65
2022/05/15 03:08:36;;;;;;;27.10;14.23;;;13.20;22.80;;;;;;5073742;28;20212;-65
2022/05/15 03:11:02;;;;;;;30.23;13.93;;;13.30;24.90;;;;;;5073665;28;20192;-66
2022/05/15 03:13:28;;;;;;;26.03;14.03;;;13.20;25.70;;;;;;5074028;28;20161;-66
2022/05/15 03:15:53;;;;;;;28.60;14.17;;;13.20;27.40;;;;;;5073232;28;20176;-66
2022/05/15 03:18:19;;;;;;;23.97;14.83;;;13.20;23.50;;;;;;5073440;28;20168;-67
2022/05/15 03:20:45;;;;;;;24.53;13.60;;;13.20;24.60;;;;;;5073829;28;20208;-67
2022/05/15 03:23:11;;;;;;;23.80;13.57;;;13.10;27.50;;;;;;5072187;28;20169;-66
2022/05/15 03:25:37;;;;;;;26.87;14.73;;;13.10;29.80;;;;;;5073593;28;20211;-67
2022/05/15 03:28:09;;;;;;;20.53;13.70;;;13.10;33.60;;;;;;5073287;28;20287;-67
2022/05/15 03:30:35;;;;;;;28.50;14.70;;;13.00;35.10;;;;;;5073054;28;20253;-66
2022/05/15 03:33:01;;;;;;;24.43;14.33;;;13.00;38.40;;;;;;5073522;28;20165;-66
2022/05/15 03:35:27;;;;;;;26.13;14.27;;;13.00;39.90;;;;;;5073609;28;20172;-66
2022/05/15 03:37:52;;;;;;;23.23;14.73;;;12.90;39.60;;;;;;5073260;28;20172;-66
2022/05/15 03:40:18;;;;;;;23.00;15.07;;;13.00;41.00;;;;;;5073495;28;20257;-66
2022/05/15 03:42:43;;;;;;;25.37;15.33;;;12.90;41.90;;;;;;5073135;28;20268;-66
2022/05/15 03:45:09;;;;;;;28.47;15.50;;;12.90;43.40;;;;;;5072687;28;20173;-65
2022/05/15 03:47:36;;;;;;;25.60;14.53;;;12.90;43.50;;;;;;5073048;28;20199;-66
2022/05/15 03:50:04;;;;;;;21.30;14.27;;;12.90;43.30;;;;;;5073045;28;20674;-65
2022/05/15 03:52:30;;;;;;;27.50;14.80;;;12.90;44.30;;;;;;5072871;28;20199;-66
2022/05/15 03:54:56;;;;;;;28.23;14.70;;;12.90;40.90;;;;;;5072885;28;20200;-67
2022/05/15 03:57:22;;;;;;;23.90;15.00;;;13.00;41.20;;;;;;5073013;28;20255;-67
2022/05/15 03:59:48;;;;;;;21.73;14.63;;;12.90;40.00;;;;;;5072674;28;20651;-67
2022/05/15 04:02:13;;;;;;;23.43;14.77;;;12.90;42.80;;;;;;5072981;28;20199;-66
2022/05/15 04:04:39;;;;;;;26.27;15.20;;;12.90;44.30;;;;;;5072860;28;20177;-66
2022/05/15 04:07:06;;;;;;;28.50;15.57;;;13.00;45.50;;;;;;5073140;28;20688;-66
2022/05/15 04:09:33;;;;;;;32.20;14.67;;;13.00;37.40;;;;;;5072793;28;20204;-66
2022/05/15 04:11:59;;;;;;;24.70;14.73;;;13.10;36.60;;;;;;5072745;28;20263;-65
2022/05/15 04:14:25;;;;;;;24.63;14.63;;;13.10;26.60;;;;;;5072821;28;20251;-65
2022/05/15 04:16:50;;;;;;;29.23;14.50;;;13.20;24.20;;;;;;5077032;28;20198;-65
2022/05/15 04:19:16;;;;;;;21.93;13.93;;;13.30;24.60;;;;;;5076697;28;20203;-66
2022/05/15 04:21:42;;;;;;;25.37;14.10;;;13.50;21.70;;;;;;5076559;28;20179;-66
2022/05/15 04:24:11;;;;;;;21.67;13.10;;;14.00;7.10;;;;;;5075484;28;20169;-66
2022/05/15 04:26:38;;;;;;;25.27;13.43;;;14.40;1.00;;;;;;5076578;28;20188;-65
2022/05/15 04:29:05;;;;;;;23.43;12.73;;;15.10;1.00;;;;;;5075977;28;20291;-65
2022/05/15 04:31:30;;;;;;;37.53;13.47;;;15.70;1.00;;;;;;5076650;28;20168;-65
2022/05/15 04:33:57;;;;;;;20.57;11.73;;;15.90;1.00;;;;;;5076869;28;20180;-66
2022/05/15 04:36:22;;;;;;;21.83;11.43;;;16.40;99.90;;;;;;5076355;28;20230;-65
2022/05/15 04:38:49;;;;;;;24.00;11.73;;;17.30;99.90;;;;;;5076898;28;20169;-65
2022/05/15 04:41:14;;;;;;;29.13;13.33;;;18.10;99.90;;;;;;5076361;28;20657;-66
2022/05/15 04:43:40;;;;;;;18.13;10.93;;;18.90;99.90;;;;;;5075899;28;20168;-66
2022/05/15 04:46:07;;;;;;;19.20;11.20;;;19.30;99.90;;;;;;5075847;28;20252;-66
2022/05/15 04:48:39;;;;;;;21.73;10.57;;;19.50;99.90;;;;;;5076418;28;20161;-66
2022/05/15 04:51:05;;;;;;;22.80;10.98;;;20.80;1.00;;;;;;5075863;28;20651;-67
2022/05/15 04:53:31;;;;;;;18.10;10.20;;;21.30;1.00;;;;;;5075953;28;20177;-66
2022/05/15 04:55:58;;;;;;;18.10;10.75;;;21.80;1.00;;;;;;5076303;28;20176;-66
2022/05/15 04:58:24;;;;;;;23.75;11.05;;;22.00;1.00;;;;;;5075534;28;20227;-67
2022/05/15 05:00:50;;;;;;;17.65;10.35;;;22.80;1.00;;;;;;5076109;28;20165;-67
2022/05/15 05:03:15;;;;;;;18.88;10.70;;;23.50;99.90;;;;;;5076074;28;20172;-67
2022/05/15 05:05:41;;;;;;;16.63;10.05;;;24.50;99.90;;;;;;5075989;28;20207;-67
2022/05/15 05:08:09;;;;;;;16.80;9.35;;;25.20;99.90;;;;;;5075764;28;20251;-67
2022/05/15 05:10:36;;;;;;;16.52;9.73;;;26.00;99.90;;;;;;5075918;28;20204;-68
2022/05/15 05:13:01;;;;;;;16.90;9.55;;;26.60;99.90;;;;;;5075242;28;20184;-68
2022/05/15 05:15:27;;;;;;;17.05;9.30;;;26.20;99.90;;;;;;5075772;28;20640;-67
2022/05/15 05:17:53;;;;;;;17.92;10.18;;;25.70;99.90;;;;;;5075653;28;20206;-67
2022/05/15 05:20:19;;;;;;;17.83;10.15;;;25.10;99.90;;;;;;5075962;28;20632;-67
2022/05/15 05:22:45;;;;;;;17.60;9.75;;;24.50;99.90;;;;;;5075578;28;20180;-67
2022/05/15 05:25:11;;;;;;;16.30;9.23;;;24.40;99.90;;;;;;5075482;28;20247;-67
2022/05/15 05:27:39;;;;;;;16.48;9.23;;;25.40;99.90;;;;;;5074863;28;20173;-68
2022/05/15 05:30:06;;;;;;;15.68;9.57;;;27.00;99.90;;;;;;5075322;28;20192;-67
2022/05/15 05:32:32;;;;;;;14.65;9.65;;;27.10;99.90;;;;;;5075394;28;20191;-67
2022/05/15 05:34:58;;;;;;;16.50;9.70;;;27.30;99.90;;;;;;5075643;28;20161;-67
2022/05/15 05:37:23;;;;;;;17.35;9.88;;;27.60;99.90;;;;;;5075368;28;20688;-67
2022/05/15 05:39:49;;;;;;;13.30;9.40;;;27.50;99.90;;;;;;5075308;28;20230;-68
2022/05/15 05:42:15;;;;;;;15.45;9.38;;;27.30;99.90;;;;;;5074973;28;20218;-68
2022/05/15 05:44:41;;;;;;;13.05;8.70;;;27.40;99.90;;;;;;5075241;28;20256;-68
2022/05/15 05:47:06;;;;;;;9.32;8.23;;;25.50;99.90;;;;;;5075063;28;20529;-67
2022/05/15 05:49:32;;;;;;;12.73;8.80;;;23.10;99.90;;;;;;5073789;28;20255;-68
2022/05/15 05:51:58;;;;;;;13.23;8.45;;;22.40;99.90;;;;;;5074013;28;20595;-68
2022/05/15 05:54:23;;;;;;;12.75;9.07;;;22.50;99.90;;;;;;5074741;28;20172;-68
2022/05/15 05:56:49;;;;;;;14.32;9.10;;;22.00;99.90;;;;;;5074869;28;20245;-68
2022/05/15 05:59:14;;;;;;;21.05;10.10;;;21.10;99.90;;;;;;5074577;28;20254;-66
2022/05/15 06:01:40;;;;;;;14.43;8.60;;;21.80;99.90;;;;;;5074654;28;20252;-66
2022/05/15 06:06:50;;;;;;;15.25;9.23;;;22.60;99.90;;;;;;5075029;28;20618;-68
2022/05/15 06:09:15;;;;;;;14.75;9.00;;;24.00;99.90;;;;;;5074847;28;20240;-68
2022/05/15 06:11:41;;;;;;;14.88;8.48;;;25.00;99.90;;;;;;5073839;28;20188;-69
2022/05/15 06:14:06;;;;;;;17.63;8.43;;;24.90;99.90;;;;;;5074712;28;20250;-67
2022/05/15 06:16:32;;;;;;;13.10;8.50;;;24.80;99.90;;;;;;5074570;28;20650;-67
2022/05/15 06:18:59;;;;;;;12.10;8.38;;;25.90;99.90;;;;;;5073817;28;20218;-67
2022/05/15 06:21:24;;;;;;;14.88;8.52;;;24.70;99.90;;;;;;5074434;28;20176;-67
2022/05/15 06:23:50;;;;;;;17.08;8.82;;;23.90;99.90;;;;;;5074182;28;20516;-67
2022/05/15 06:26:15;;;;;;;11.13;8.38;;;23.80;99.90;;;;;;5073614;28;20242;-67
2022/05/15 06:28:41;;;;;;;10.77;8.27;;;23.50;99.90;;;;;;5074345;28;20559;-68
2022/05/15 06:31:07;;;;;;;15.00;8.07;;;24.30;24.40;;;;;;5073947;28;20180;-67
2022/05/15 06:33:32;;;;;;;14.50;8.20;;;24.50;99.90;;;;;;5074334;28;20244;-67
2022/05/15 06:35:59;;;;;;;12.77;8.02;;;24.30;99.90;;;;;;5074229;28;20237;-67
2022/05/15 06:38:24;;;;;;;11.60;8.05;;;24.40;99.90;;;;;;5072805;28;20176;-66
2022/05/15 06:40:50;;;;;;;10.40;8.23;;;22.50;99.90;;;;;;5073897;28;20180;-68
2022/05/15 06:43:16;;;;;;;12.25;7.88;;;22.30;99.90;;;;;;5074019;28;20165;-67
2022/05/15 06:45:42;;;;;;;12.50;8.63;;;22.80;99.90;;;;;;5074113;28;20165;-69
2022/05/15 06:48:09;;;;;;;12.05;8.18;;;23.60;99.90;;;;;;5073627;28;20168;-67
2022/05/15 06:50:34;;;;;;;11.35;7.97;;;24.40;1.00;;;;;;5073490;28;20216;-67
2022/05/15 06:53:00;;;;;;;13.35;7.72;;;24.10;99.90;;;;;;5073870;28;20173;-68
2022/05/15 06:55:26;;;;;;;11.95;7.60;;;24.70;1.00;;;;;;5072741;28;20175;-68
2022/05/15 06:57:52;;;;;;;9.65;7.40;;;25.30;1.00;;;;;;5073493;28;20169;-67
2022/05/15 07:00:21;;;;;;;10.63;7.93;;;26.60;1.00;;;;;;5073478;28;20180;-67
2022/05/15 07:02:47;;;;;;;9.10;6.80;;;27.20;1.00;;;;;;5073297;28;20176;-67
2022/05/15 07:05:20;;;;;;;10.95;7.55;;;28.00;1.00;;;;;;5073337;28;20168;-67
2022/05/15 07:07:46;;;;;;;12.60;7.50;;;27.10;99.90;;;;;;5073385;28;20165;-67
2022/05/15 07:10:13;;;;;;;9.63;6.15;;;26.60;1.00;;;;;;5071730;28;20289;-68
2022/05/15 07:12:39;;;;;;;11.40;6.75;;;28.10;99.90;;;;;;5073647;28;20243;-68
2022/05/15 07:15:06;;;;;;;10.60;6.68;;;28.40;99.90;;;;;;5073478;28;20650;-68
2022/05/15 07:17:32;;;;;;;7.80;6.65;;;29.40;99.90;;;;;;5073655;28;20180;-69
2022/05/15 07:19:58;;;;;;;11.15;6.90;;;30.00;99.90;;;;;;5073443;28;20222;-69
2022/05/15 07:22:23;;;;;;;9.55;6.15;;;29.90;99.90;;;;;;5072126;28;20659;-67
2022/05/15 07:24:49;;;;;;;8.95;6.28;;;30.10;1.00;;;;;;5073196;28;20223;-67
2022/05/15 07:27:15;;;;;;;7.90;6.20;;;31.00;99.90;;;;;;5073529;28;20627;-67
2022/05/15 07:29:41;;;;;;;7.63;5.78;;;31.30;1.00;;;;;;5073055;28;20210;-67
2022/05/15 07:32:09;;;;;;;8.85;6.22;;;32.20;1.00;;;;;;5073316;28;20196;-70
2022/05/15 07:34:37;;;;;;;8.98;5.50;;;33.10;1.00;;;;;;5073291;28;20635;-69
2022/05/15 07:37:03;;;;;;;7.65;4.93;;;33.70;14.50;;;;;;5072786;28;20176;-69
2022/05/15 07:39:29;;;;;;;10.00;5.53;;;32.80;10.80;;;;;;5073211;28;20263;-68
2022/05/15 07:41:55;;;;;;;9.52;6.20;;;27.80;24.10;;;;;;5073134;28;20255;-68
2022/05/15 07:44:21;;;;;;;7.63;5.72;;;25.70;41.00;;;;;;5072438;28;20180;-68
2022/05/15 07:46:47;;;;;;;9.60;6.38;;;27.30;43.00;;;;;;5071983;28;20187;-67
2022/05/15 07:49:13;;;;;;;8.88;5.50;;;28.40;37.40;;;;;;5072782;28;20675;-68
2022/05/15 07:51:44;;;;;;;6.70;5.72;;;29.80;28.70;;;;;;5072559;28;20180;-67
2022/05/15 07:54:14;;;;;;;7.00;5.55;;;28.10;33.60;;;;;;5073047;28;20184;-69
2022/05/15 07:56:40;;;;;;;7.45;5.55;;;27.70;38.80;;;;;;5072880;28;20199;-68
2022/05/15 07:59:05;;;;;;;7.93;5.50;;;27.30;39.40;;;;;;5072348;28;20247;-69
2022/05/15 08:01:32;;;;;;;10.32;5.85;;;29.30;31.00;;;;;;5072336;28;20687;-68
2022/05/15 08:03:58;;;;;;;9.05;6.15;;;30.50;26.10;;;;;;5072302;28;20199;-68
2022/05/15 08:09:09;;;;;;;8.63;5.60;;;29.80;26.40;;;;;;5072525;28;20219;-68
2022/05/15 08:11:36;;;;;;;6.15;5.20;;;29.20;26.40;;;;;;5072813;28;20196;-69
2022/05/15 08:14:05;;;;;;;9.98;5.43;;;28.80;29.20;;;;;;5072828;28;20251;-69
2022/05/15 08:16:32;;;;;;;9.50;5.43;;;29.40;28.20;;;;;;5072168;28;20173;-68
2022/05/15 08:24:26;;;;;;;8.88;5.07;;;30.30;19.00;;;;;;5072764;28;20321;-70
2022/05/15 08:26:52;;;;;;;11.82;5.10;;;29.60;20.20;;;;;;5072617;28;20197;-68
2022/05/15 08:29:18;;;;;;;8.05;5.13;;;30.40;17.70;;;;;;5072698;28;20212;-67
2022/05/15 08:31:45;;;;;;;7.72;4.82;;;30.40;13.60;;;;;;5072993;28;20263;-67
2022/05/15 08:34:11;;;;;;;7.85;4.63;;;29.10;17.90;;;;;;5072001;28;20173;-69
2022/05/15 08:36:39;;;;;;;7.13;4.03;;;28.60;22.30;;;;;;5071820;28;20199;-69
2022/05/15 08:39:04;;;;;;;7.20;4.95;;;28.40;19.70;;;;;;5072234;28;20694;-70
2022/05/15 08:41:30;;;;;;;9.73;4.63;;;27.70;24.00;;;;;;5072140;28;20264;-69
2022/05/15 08:44:08;;;;;;;4.80;4.10;;;27.60;23.20;;;;;;5072072;28;20173;-67
2022/05/15 08:46:49;;;;;;;8.88;4.32;;;27.90;24.40;;;;;;5072559;28;20172;-69
2022/05/15 08:49:17;;;;;;;4.30;3.63;;;27.90;24.00;;;;;;5071975;28;20677;-69
2022/05/15 08:52:04;;;;;;;8.20;6.47;;;29.10;21.70;;;;;;5072427;28;20253;-68
2022/05/15 08:54:33;;;;;;;7.78;3.75;;;28.90;22.00;;;;;;5072201;28;20268;-68
2022/05/15 08:56:59;;;;;;;4.50;3.55;;;29.80;17.10;;;;;;5072074;28;20190;-69
2022/05/15 08:59:33;;;;;;;6.40;3.70;;;28.80;17.20;;;;;;5072073;28;20731;-68
2022/05/15 09:02:00;;;;;;;6.97;3.90;;;29.90;29.10;;;;;;5073226;28;20648;-69
2022/05/15 09:04:29;;;;;;;6.45;4.00;;;30.30;10.70;;;;;;5075668;28;20226;-69
2022/05/15 09:07:19;;;;;;;7.55;3.92;;;30.00;10.00;;;;;;5075533;28;20169;-70
2022/05/15 09:10:13;;;;;;;6.03;3.83;;;29.60;10.10;;;;;;5075338;28;20205;-68
2022/05/15 09:12:50;;;;;;;4.82;3.67;;;28.60;15.40;;;;;;5076069;28;20263;-68
2022/05/15 09:15:18;;;;;;;5.25;3.13;;;28.50;16.20;;;;;;5075389;28;20226;-68
2022/05/15 09:18:00;;;;;;;3.65;3.35;;;28.30;15.50;;;;;;5075518;28;20176;-68
2022/05/15 09:20:26;;;;;;;6.90;4.07;;;28.10;16.40;;;;;;5075221;28;20208;-69
2022/05/15 09:23:01;;;;;;;9.52;3.72;;;29.00;13.50;;;;;;5076047;28;20253;-69
2022/05/15 09:25:34;;;;;;;3.95;3.63;;;29.30;11.50;;;;;;5075680;28;20206;-69
2022/05/15 09:28:02;;;;;;;3.90;3.17;;;29.40;10.50;;;;;;5075473;28;20279;-69
2022/05/15 09:30:42;;;;;;;6.72;3.47;;;29.40;12.40;;;;;;5075392;28;20208;-68
2022/05/15 09:33:32;;;;;;;5.93;4.45;;;30.40;9.00;;;;;;5074616;28;20371;-70
2022/05/15 09:36:19;;;;;;;4.03;3.30;;;30.00;8.60;;;;;;5075041;28;20184;-68
2022/05/15 09:38:46;;;;;;;4.57;3.60;;;30.20;7.90;;;;;;5075274;28;20250;-69
2022/05/15 09:44:02;;;;;;;4.95;3.25;;;30.40;4.30;;;;;;5075094;28;20233;-68
2022/05/15 09:46:29;;;;;;;6.55;3.78;;;29.40;4.30;;;;;;5075322;28;20255;-68
2022/05/15 09:49:08;;;;;;;6.82;3.13;;;29.00;7.80;;;;;;5074454;28;20283;-69
2022/05/15 09:51:50;;;;;;;5.70;3.28;;;28.90;7.30;;;;;;5074724;28;20635;-68
2022/05/15 09:54:38;;;;;;;6.32;3.70;;;29.20;8.30;;;;;;5075001;28;20165;-69
2022/05/15 09:57:28;;;;;;;6.20;3.25;;;29.80;6.00;;;;;;5074389;28;20176;-70
2022/05/15 09:59:59;;;;;;;4.00;3.47;;;30.30;3.00;;;;;;5068423;28;20221;-69
2022/05/15 10:02:42;;;;;;;5.25;3.35;;;29.60;5.40;;;;;;5074729;28;20203;-71
2022/05/15 10:05:26;;;;;;;5.70;4.13;;;29.00;6.00;;;;;;5074637;28;20165;-69
2022/05/15 10:07:59;;;;;;;4.18;2.90;;;27.50;8.60;;;;;;5074929;28;20175;-70
2022/05/15 10:10:29;;;;;;;4.60;3.03;;;28.00;9.70;;;;;;5074532;28;20240;-69
2022/05/15 10:13:07;;;;;;;4.60;2.55;;;28.60;7.00;;;;;;5074661;28;20195;-69
2022/05/15 10:15:47;;;;;;;4.45;3.00;;;29.30;4.90;;;;;;5074875;28;20251;-70
2022/05/15 10:18:18;;;;;;;5.15;2.97;;;29.70;2.40;;;;;;5073944;28;20168;-69
2022/05/15 10:20:45;;;;;;;5.43;3.20;;;29.80;4.10;;;;;;5074401;28;20226;-67
2022/05/15 10:23:15;;;;;;;4.93;2.80;;;28.20;6.50;;;;;;5073020;28;20215;-68
2022/05/15 10:26:04;;;;;;;4.85;2.97;;;27.80;7.40;;;;;;5074555;28;20563;-68
2022/05/15 10:28:35;;;;;;;5.55;3.10;;;27.90;9.70;;;;;;5052750;28;20192;-67
2022/05/15 10:31:01;;;;;;;7.40;2.50;;;27.70;7.50;;;;;;5073407;28;20180;-67
2022/05/15 10:33:27;;;;;;;5.95;3.70;;;27.60;7.90;;;;;;5074294;28;20620;-69
2022/05/15 10:36:25;;;;;;;6.13;4.25;;;28.40;9.40;;;;;;5074736;28;20207;-69
2022/05/15 10:39:21;;;;;;;4.47;3.08;;;29.50;5.90;;;;;;5073826;28;20248;-70
2022/05/15 10:42:07;;;;;;;4.43;2.88;;;30.00;2.20;;;;;;5073697;28;20173;-68
2022/05/15 10:45:04;;;;;;;5.18;2.38;;;29.70;1.40;;;;;;5074042;28;20175;-67
2022/05/15 10:47:40;;;;;;;3.65;2.60;;;28.30;5.90;;;;;;5073133;28;20168;-68
2022/05/15 10:50:19;;;;;;;4.70;2.92;;;28.30;7.10;;;;;;5073622;28;20295;-68
2022/05/15 10:52:55;;;;;;;6.95;3.38;;;28.10;6.20;;;;;;5073158;28;20267;-68
2022/05/15 10:58:59;;;;;;;5.50;2.90;;;29.00;5.20;;;;;;5073460;28;20207;-69
2022/05/15 11:01:44;;;;;;;5.35;3.47;;;29.90;1.80;;;;;;5073191;28;20247;-69
2022/05/15 11:04:19;;;;;;;5.05;4.00;;;29.50;1.60;;;;;;5073527;28;20255;-68
2022/05/15 11:06:47;;;;;;;3.63;3.20;;;29.00;3.20;;;;;;5072695;28;20670;-68
2022/05/15 11:09:35;;;;;;;5.20;4.68;;;29.00;4.00;;;;;;5071868;28;20286;-68
2022/05/15 11:12:13;;;;;;;4.10;3.70;;;29.30;3.10;;;;;;5073335;28;20647;-68
2022/05/15 11:15:00;;;;;;;6.13;4.40;;;30.20;1.20;;;;;;5073303;28;20221;-69
2022/05/15 11:17:35;;;;;;;2.95;2.75;;;29.50;1.00;;;;;;5072058;28;20753;-68
2022/05/15 11:20:36;;;;;;;2.80;2.53;;;29.60;1.00;;;;;;5073392;28;20183;-68
2022/05/15 11:23:13;;;;;;;5.28;4.00;;;28.20;1.60;;;;;;5072429;28;20184;-67
2022/05/15 11:25:49;;;;;;;6.57;4.07;;;27.20;7.20;;;;;;5072547;28;20168;-67
2022/05/15 11:28:25;;;;;;;4.70;2.88;;;27.10;9.20;;;;;;5073143;28;20576;-66
2022/05/15 11:31:09;;;;;;;5.20;2.90;;;27.50;9.00;;;;;;5072766;28;20294;-67
2022/05/15 11:33:43;;;;;;;3.50;2.60;;;27.60;7.60;;;;;;5072496;28;20165;-67
2022/05/15 11:36:21;;;;;;;2.97;2.70;;;27.80;7.80;;;;;;5072579;28;20171;-67
2022/05/15 11:38:59;;;;;;;4.07;2.72;;;27.00;7.50;;;;;;5072580;28;20624;-68
2022/05/15 11:41:39;;;;;;;3.40;3.00;;;27.40;9.10;;;;;;5072537;28;20180;-68
2022/05/15 11:44:13;;;;;;;3.45;2.80;;;27.60;9.00;;;;;;5072701;28;20202;-67
2022/05/15 11:47:00;;;;;;;3.20;2.90;;;27.20;10.60;;;;;;5071744;28;20179;-68
2022/05/15 11:49:31;;;;;;;5.60;4.43;;;27.60;12.20;;;;;;5071841;28;20204;-67
2022/05/15 11:52:05;;;;;;;6.88;4.63;;;27.60;11.90;;;;;;5072871;28;20237;-67
2022/05/15 11:54:38;;;;;;;5.00;3.53;;;27.10;11.00;;;;;;5072978;28;20172;-67
2022/05/15 11:57:07;;;;;;;12.10;5.35;;;27.10;14.50;;;;;;5072632;28;20455;-67
2022/05/15 11:59:46;;;;;;;9.02;4.45;;;27.20;15.60;;;;;;5071721;28;20227;-68
2022/05/15 12:02:20;;;;;;;7.57;4.40;;;26.90;17.80;;;;;;5072640;28;20199;-68
2022/05/15 12:04:46;;;;;;;4.40;2.97;;;27.10;16.50;;;;;;5072526;28;20168;-70
2022/05/15 12:07:14;;;;;;;3.33;2.92;;;27.40;16.10;;;;;;5072505;28;20233;-67
2022/05/15 12:09:40;;;;;;;4.07;3.63;;;26.70;17.70;;;;;;5072631;28;20204;-67
2022/05/15 12:12:21;;;;;;;8.18;3.92;;;26.50;20.80;;;;;;5072567;28;20171;-66
2022/05/15 12:15:13;;;;;;;9.73;6.63;;;26.00;21.40;;;;;;5071965;28;20172;-67
2022/05/15 12:17:59;;;;;;;5.40;3.75;;;26.10;25.40;;;;;;5072421;28;20252;-67
2022/05/15 12:20:28;;;;;;;5.63;2.70;;;26.50;25.20;;;;;;5072267;28;20161;-67
2022/05/15 12:23:01;;;;;;;6.80;3.10;;;26.40;24.20;;;;;;5072326;28;20181;-67
2022/05/15 12:25:32;;;;;;;6.78;3.75;;;26.70;24.50;;;;;;5071676;28;20558;-67
2022/05/15 12:28:52;;;;;;;4.25;3.33;;;27.00;24.80;;;;;;5072054;28;20663;-67
2022/05/15 12:31:30;;;;;;;8.35;3.33;;;27.30;23.30;;;;;;5072318;28;20275;-67
2022/05/15 12:34:06;;;;;;;4.05;3.35;;;26.90;23.70;;;;;;5071825;28;20194;-67
2022/05/15 12:36:39;;;;;;;6.53;3.13;;;26.60;34.60;;;;;;5074291;28;20259;-67
2022/05/15 12:39:06;;;;;;;3.22;2.90;;;26.50;26.10;;;;;;5076116;28;20219;-68
2022/05/15 12:41:41;;;;;;;3.63;2.90;;;26.60;24.00;;;;;;5075699;28;20267;-68
2022/05/15 12:44:08;;;;;;;4.38;3.03;;;26.90;26.20;;;;;;5076486;28;20168;-66
2022/05/15 12:46:57;;;;;;;5.22;2.75;;;26.80;23.50;;;;;;5076386;28;20187;-66
2022/05/15 12:49:39;;;;;;;4.80;3.28;;;26.60;27.40;;;;;;5075223;28;20204;-67
2022/05/15 12:52:25;;;;;;;6.47;3.20;;;26.60;26.30;;;;;;5076242;28;20525;-67
2022/05/15 12:55:06;;;;;;;6.05;3.55;;;26.00;28.20;;;;;;5073924;28;20172;-66
2022/05/15 12:57:46;;;;;;;4.95;3.67;;;26.40;29.70;;;;;;5075635;28;20636;-67
2022/05/15 13:00:16;;;;;;;7.28;3.97;;;26.60;28.40;;;;;;5075317;28;20181;-67
2022/05/15 13:02:41;;;;;;;5.32;2.65;;;26.40;27.80;;;;;;5075527;28;20172;-67
2022/05/15 13:05:20;;;;;;;3.60;2.50;;;26.70;24.80;;;;;;5075633;28;20164;-66
2022/05/15 13:07:45;;;;;;;4.20;2.85;;;26.80;25.70;;;;;;5075115;28;20177;-67
2022/05/15 13:10:14;;;;;;;4.75;3.35;;;27.10;23.60;;;;;;5075747;28;20334;-68
2022/05/15 13:12:59;;;;;;;3.30;3.10;;;27.00;25.00;;;;;;5075183;28;20168;-67
2022/05/15 13:15:28;;;;;;;5.57;2.78;;;26.40;25.70;;;;;;5074885;28;20180;-66